sensor_id;sensor_type;location;lat;lon;timestamp;temperature;humidity
80279;DHT22;70683;52.492;13.416;2023-08-06T00:02:20;19.50;77.60
80279;DHT22;70683;52.492;13.416;2023-08-06T00:04:47;19.40;77.70
80279;DHT22;70683;52.492;13.416;2023-08-06T00:07:13;19.40;77.80
80279;DHT22;70683;52.492;13.416;2023-08-06T00:09:40;19.40;77.90
80279;DHT22;70683;52.492;13.416;2023-08-06T00:12:07;19.40;77.90
80279;DHT22;70683;52.492;13.416;2023-08-06T00:14:34;19.40;78.20
80279;DHT22;70683;52.492;13.416;2023-08-06T00:17:00;19.40;78.20
80279;DHT22;70683;52.492;13.416;2023-08-06T00:19:27;19.40;78.10
80279;DHT22;70683;52.492;13.416;2023-08-06T00:21:53;19.40;78.40
80279;DHT22;70683;52.492;13.416;2023-08-06T00:24:20;19.40;78.50
80279;DHT22;70683;52.492;13.416;2023-08-06T00:26:47;19.40;78.60
80279;DHT22;70683;52.492;13.416;2023-08-06T00:29:13;19.50;78.50
80279;DHT22;70683;52.492;13.416;2023-08-06T00:31:40;19.50;78.60
80279;DHT22;70683;52.492;13.416;2023-08-06T00:34:07;19.40;78.90
80279;DHT22;70683;52.492;13.416;2023-08-06T00:36:33;19.40;79.00
80279;DHT22;70683;52.492;13.416;2023-08-06T00:39:00;19.40;79.20
80279;DHT22;70683;52.492;13.416;2023-08-06T00:41:26;19.40;79.00
80279;DHT22;70683;52.492;13.416;2023-08-06T00:43:53;19.40;79.20
80279;DHT22;70683;52.492;13.416;2023-08-06T00:46:20;19.40;79.30
80279;DHT22;70683;52.492;13.416;2023-08-06T00:48:47;19.40;79.30
80279;DHT22;70683;52.492;13.416;2023-08-06T00:51:14;19.30;79.30
80279;DHT22;70683;52.492;13.416;2023-08-06T00:53:42;19.30;79.50
80279;DHT22;70683;52.492;13.416;2023-08-06T00:56:10;19.30;79.60
80279;DHT22;70683;52.492;13.416;2023-08-06T00:58:37;19.30;79.90
80279;DHT22;70683;52.492;13.416;2023-08-06T01:01:04;19.20;80.10
80279;DHT22;70683;52.492;13.416;2023-08-06T01:03:31;19.20;80.10
80279;DHT22;70683;52.492;13.416;2023-08-06T01:05:58;19.20;80.20
80279;DHT22;70683;52.492;13.416;2023-08-06T01:08:36;19.20;80.40
80279;DHT22;70683;52.492;13.416;2023-08-06T01:11:29;19.20;80.60
80279;DHT22;70683;52.492;13.416;2023-08-06T01:14:08;19.10;80.60
80279;DHT22;70683;52.492;13.416;2023-08-06T01:16:38;19.00;81.10
80279;DHT22;70683;52.492;13.416;2023-08-06T01:21:40;18.80;81.80
80279;DHT22;70683;52.492;13.416;2023-08-06T01:24:07;18.80;82.00
80279;DHT22;70683;52.492;13.416;2023-08-06T01:26:41;18.80;82.00
80279;DHT22;70683;52.492;13.416;2023-08-06T01:29:17;18.80;82.00
80279;DHT22;70683;52.492;13.416;2023-08-06T01:31:44;18.80;82.30
80279;DHT22;70683;52.492;13.416;2023-08-06T01:34:20;18.80;82.40
80279;DHT22;70683;52.492;13.416;2023-08-06T01:36:47;18.80;82.20
80279;DHT22;70683;52.492;13.416;2023-08-06T01:39:14;18.80;82.40
80279;DHT22;70683;52.492;13.416;2023-08-06T01:41:41;18.70;82.60
80279;DHT22;70683;52.492;13.416;2023-08-06T01:44:07;18.70;82.80
80279;DHT22;70683;52.492;13.416;2023-08-06T01:46:34;18.70;83.10
80279;DHT22;70683;52.492;13.416;2023-08-06T01:49:00;18.70;83.10
80279;DHT22;70683;52.492;13.416;2023-08-06T01:51:27;18.70;83.30
80279;DHT22;70683;52.492;13.416;2023-08-06T01:53:54;18.60;83.70
80279;DHT22;70683;52.492;13.416;2023-08-06T01:56:20;18.60;83.90
80279;DHT22;70683;52.492;13.416;2023-08-06T01:58:47;18.60;84.20
80279;DHT22;70683;52.492;13.416;2023-08-06T02:01:14;18.50;84.00
80279;DHT22;70683;52.492;13.416;2023-08-06T02:03:40;18.50;84.30
80279;DHT22;70683;52.492;13.416;2023-08-06T02:06:07;18.40;84.90
80279;DHT22;70683;52.492;13.416;2023-08-06T02:08:34;18.30;85.30
80279;DHT22;70683;52.492;13.416;2023-08-06T02:11:00;18.30;85.70
80279;DHT22;70683;52.492;13.416;2023-08-06T02:13:28;18.30;85.60
80279;DHT22;70683;52.492;13.416;2023-08-06T02:15:55;18.30;85.60
80279;DHT22;70683;52.492;13.416;2023-08-06T02:18:22;18.20;86.00
80279;DHT22;70683;52.492;13.416;2023-08-06T02:20:55;18.20;86.20
80279;DHT22;70683;52.492;13.416;2023-08-06T02:23:23;18.10;86.40
80279;DHT22;70683;52.492;13.416;2023-08-06T02:25:59;18.10;86.60
80279;DHT22;70683;52.492;13.416;2023-08-06T02:28:26;18.20;86.70
80279;DHT22;70683;52.492;13.416;2023-08-06T02:30:53;18.20;86.60
80279;DHT22;70683;52.492;13.416;2023-08-06T02:33:19;18.20;86.40
80279;DHT22;70683;52.492;13.416;2023-08-06T02:35:46;18.10;86.70
80279;DHT22;70683;52.492;13.416;2023-08-06T02:38:13;18.10;86.90
80279;DHT22;70683;52.492;13.416;2023-08-06T02:40:43;18.10;86.90
80279;DHT22;70683;52.492;13.416;2023-08-06T02:43:11;18.10;86.60
80279;DHT22;70683;52.492;13.416;2023-08-06T02:45:38;18.10;86.80
80279;DHT22;70683;52.492;13.416;2023-08-06T02:48:05;18.00;87.20
80279;DHT22;70683;52.492;13.416;2023-08-06T02:50:38;18.00;87.10
80279;DHT22;70683;52.492;13.416;2023-08-06T02:53:05;18.00;87.20
80279;DHT22;70683;52.492;13.416;2023-08-06T02:55:33;18.00;86.80
80279;DHT22;70683;52.492;13.416;2023-08-06T02:58:00;18.00;86.90
80279;DHT22;70683;52.492;13.416;2023-08-06T03:00:27;18.00;86.90
80279;DHT22;70683;52.492;13.416;2023-08-06T03:02:54;18.00;87.50
80279;DHT22;70683;52.492;13.416;2023-08-06T03:05:21;17.90;87.50
80279;DHT22;70683;52.492;13.416;2023-08-06T03:07:47;17.90;87.50
80279;DHT22;70683;52.492;13.416;2023-08-06T03:10:14;18.00;86.90
80279;DHT22;70683;52.492;13.416;2023-08-06T03:12:40;18.00;86.70
80279;DHT22;70683;52.492;13.416;2023-08-06T03:15:08;17.90;87.00
80279;DHT22;70683;52.492;13.416;2023-08-06T03:17:35;17.80;87.30
80279;DHT22;70683;52.492;13.416;2023-08-06T03:20:01;17.80;87.60
80279;DHT22;70683;52.492;13.416;2023-08-06T03:22:28;17.80;87.70
80279;DHT22;70683;52.492;13.416;2023-08-06T03:24:54;17.80;87.80
80279;DHT22;70683;52.492;13.416;2023-08-06T03:27:21;17.80;87.50
80279;DHT22;70683;52.492;13.416;2023-08-06T03:29:49;17.80;87.50
80279;DHT22;70683;52.492;13.416;2023-08-06T03:32:17;17.80;87.40
80279;DHT22;70683;52.492;13.416;2023-08-06T03:34:44;17.70;87.50
80279;DHT22;70683;52.492;13.416;2023-08-06T03:37:10;17.60;87.90
80279;DHT22;70683;52.492;13.416;2023-08-06T03:52:09;17.50;88.70
80279;DHT22;70683;52.492;13.416;2023-08-06T03:54:35;17.50;88.80
80279;DHT22;70683;52.492;13.416;2023-08-06T03:57:03;17.50;88.90
80279;DHT22;70683;52.492;13.416;2023-08-06T03:59:29;17.50;88.90
80279;DHT22;70683;52.492;13.416;2023-08-06T04:01:56;17.50;89.10
80279;DHT22;70683;52.492;13.416;2023-08-06T04:04:22;17.50;89.00
80279;DHT22;70683;52.492;13.416;2023-08-06T04:06:49;17.50;88.90
80279;DHT22;70683;52.492;13.416;2023-08-06T04:09:15;17.50;88.90
80279;DHT22;70683;52.492;13.416;2023-08-06T04:11:42;17.40;89.30
80279;DHT22;70683;52.492;13.416;2023-08-06T04:14:09;17.50;89.10
80279;DHT22;70683;52.492;13.416;2023-08-06T04:16:35;17.50;89.30
80279;DHT22;70683;52.492;13.416;2023-08-06T04:19:02;17.50;89.30
80279;DHT22;70683;52.492;13.416;2023-08-06T04:21:28;17.50;89.30
80279;DHT22;70683;52.492;13.416;2023-08-06T04:23:56;17.60;89.40
80279;DHT22;70683;52.492;13.416;2023-08-06T04:26:22;17.60;89.50
80279;DHT22;70683;52.492;13.416;2023-08-06T04:28:49;17.60;90.00
80279;DHT22;70683;52.492;13.416;2023-08-06T04:31:16;17.60;89.90
80279;DHT22;70683;52.492;13.416;2023-08-06T04:33:42;17.60;89.80
80279;DHT22;70683;52.492;13.416;2023-08-06T04:36:09;17.60;89.20
80279;DHT22;70683;52.492;13.416;2023-08-06T04:38:36;17.60;89.30
80279;DHT22;70683;52.492;13.416;2023-08-06T04:41:02;17.60;89.30
80279;DHT22;70683;52.492;13.416;2023-08-06T04:43:30;17.60;90.00
80279;DHT22;70683;52.492;13.416;2023-08-06T04:45:57;17.60;89.90
80279;DHT22;70683;52.492;13.416;2023-08-06T04:48:23;17.60;90.00
80279;DHT22;70683;52.492;13.416;2023-08-06T04:50:50;17.70;89.50
80279;DHT22;70683;52.492;13.416;2023-08-06T04:53:17;17.70;89.70
80279;DHT22;70683;52.492;13.416;2023-08-06T04:55:44;17.70;89.70
80279;DHT22;70683;52.492;13.416;2023-08-06T04:58:10;17.70;89.90
80279;DHT22;70683;52.492;13.416;2023-08-06T05:00:37;17.80;89.90
80279;DHT22;70683;52.492;13.416;2023-08-06T05:03:04;17.80;89.60
80279;DHT22;70683;52.492;13.416;2023-08-06T05:05:31;17.80;89.60
80279;DHT22;70683;52.492;13.416;2023-08-06T05:07:58;17.80;89.10
80279;DHT22;70683;52.492;13.416;2023-08-06T05:10:25;17.90;89.00
80279;DHT22;70683;52.492;13.416;2023-08-06T05:12:52;17.90;89.00
80279;DHT22;70683;52.492;13.416;2023-08-06T05:15:19;17.90;88.90
80279;DHT22;70683;52.492;13.416;2023-08-06T05:17:45;17.90;88.50
80279;DHT22;70683;52.492;13.416;2023-08-06T05:20:12;17.90;88.00
80279;DHT22;70683;52.492;13.416;2023-08-06T05:22:39;17.90;88.20
80279;DHT22;70683;52.492;13.416;2023-08-06T05:27:49;17.90;86.90
80279;DHT22;70683;52.492;13.416;2023-08-06T05:30:16;17.90;88.10
80279;DHT22;70683;52.492;13.416;2023-08-06T05:32:43;17.80;88.00
80279;DHT22;70683;52.492;13.416;2023-08-06T05:35:09;17.90;87.60
80279;DHT22;70683;52.492;13.416;2023-08-06T05:37:36;17.80;87.70
80279;DHT22;70683;52.492;13.416;2023-08-06T05:40:03;17.90;88.00
80279;DHT22;70683;52.492;13.416;2023-08-06T05:42:31;17.90;88.20
80279;DHT22;70683;52.492;13.416;2023-08-06T05:44:57;18.00;88.20
80279;DHT22;70683;52.492;13.416;2023-08-06T05:47:24;17.90;88.20
80279;DHT22;70683;52.492;13.416;2023-08-06T05:49:51;18.00;88.00
80279;DHT22;70683;52.492;13.416;2023-08-06T05:52:17;18.00;87.60
80279;DHT22;70683;52.492;13.416;2023-08-06T05:54:44;18.00;87.50
80279;DHT22;70683;52.492;13.416;2023-08-06T05:57:11;18.10;87.20
80279;DHT22;70683;52.492;13.416;2023-08-06T05:59:37;18.00;87.20
80279;DHT22;70683;52.492;13.416;2023-08-06T06:02:04;18.00;87.00
80279;DHT22;70683;52.492;13.416;2023-08-06T06:04:30;18.00;87.30
80279;DHT22;70683;52.492;13.416;2023-08-06T06:06:57;18.10;86.90
80279;DHT22;70683;52.492;13.416;2023-08-06T06:09:24;18.10;86.60
80279;DHT22;70683;52.492;13.416;2023-08-06T06:11:50;18.10;86.60
80279;DHT22;70683;52.492;13.416;2023-08-06T06:14:18;18.10;86.70
80279;DHT22;70683;52.492;13.416;2023-08-06T06:16:45;18.20;86.90
80279;DHT22;70683;52.492;13.416;2023-08-06T06:19:12;18.20;87.10
80279;DHT22;70683;52.492;13.416;2023-08-06T06:21:39;18.20;86.90
80279;DHT22;70683;52.492;13.416;2023-08-06T06:24:06;18.30;86.70
80279;DHT22;70683;52.492;13.416;2023-08-06T06:26:34;18.30;86.60
80279;DHT22;70683;52.492;13.416;2023-08-06T06:29:01;18.30;87.50
80279;DHT22;70683;52.492;13.416;2023-08-06T06:31:27;18.30;86.30
80279;DHT22;70683;52.492;13.416;2023-08-06T06:33:54;18.30;86.50
80279;DHT22;70683;52.492;13.416;2023-08-06T06:36:21;18.30;86.50
80279;DHT22;70683;52.492;13.416;2023-08-06T06:38:49;18.30;86.50
80279;DHT22;70683;52.492;13.416;2023-08-06T06:41:16;18.30;86.50
80279;DHT22;70683;52.492;13.416;2023-08-06T06:43:44;18.30;86.60
80279;DHT22;70683;52.492;13.416;2023-08-06T06:46:12;18.30;87.00
80279;DHT22;70683;52.492;13.416;2023-08-06T06:48:38;18.30;86.70
80279;DHT22;70683;52.492;13.416;2023-08-06T06:51:05;18.40;86.90
80279;DHT22;70683;52.492;13.416;2023-08-06T06:53:32;18.40;87.00
80279;DHT22;70683;52.492;13.416;2023-08-06T06:56:03;18.40;86.90
80279;DHT22;70683;52.492;13.416;2023-08-06T06:58:31;18.50;87.30
80279;DHT22;70683;52.492;13.416;2023-08-06T07:00:57;18.50;87.40
80279;DHT22;70683;52.492;13.416;2023-08-06T07:03:24;18.60;86.80
80279;DHT22;70683;52.492;13.416;2023-08-06T07:05:51;18.50;87.10
80279;DHT22;70683;52.492;13.416;2023-08-06T07:08:17;18.60;87.20
80279;DHT22;70683;52.492;13.416;2023-08-06T07:10:44;18.60;87.30
80279;DHT22;70683;52.492;13.416;2023-08-06T07:13:11;18.70;86.90
80279;DHT22;70683;52.492;13.416;2023-08-06T07:15:37;18.70;86.50
80279;DHT22;70683;52.492;13.416;2023-08-06T07:18:04;18.70;86.00
80279;DHT22;70683;52.492;13.416;2023-08-06T07:20:31;18.80;86.30
80279;DHT22;70683;52.492;13.416;2023-08-06T07:22:59;18.80;86.60
80279;DHT22;70683;52.492;13.416;2023-08-06T07:25:26;18.80;86.60
80279;DHT22;70683;52.492;13.416;2023-08-06T07:27:52;18.90;86.50
80279;DHT22;70683;52.492;13.416;2023-08-06T07:30:19;19.00;86.60
80279;DHT22;70683;52.492;13.416;2023-08-06T07:32:46;19.00;86.20
80279;DHT22;70683;52.492;13.416;2023-08-06T07:35:13;19.10;85.30
80279;DHT22;70683;52.492;13.416;2023-08-06T07:37:40;19.20;84.70
80279;DHT22;70683;52.492;13.416;2023-08-06T07:40:07;19.20;84.50
80279;DHT22;70683;52.492;13.416;2023-08-06T07:42:34;19.20;84.90
80279;DHT22;70683;52.492;13.416;2023-08-06T07:45:02;19.20;84.20
80279;DHT22;70683;52.492;13.416;2023-08-06T07:47:29;19.30;84.40
80279;DHT22;70683;52.492;13.416;2023-08-06T07:49:56;19.30;84.30
80279;DHT22;70683;52.492;13.416;2023-08-06T07:52:23;19.20;84.10
80279;DHT22;70683;52.492;13.416;2023-08-06T07:54:50;19.20;84.60
80279;DHT22;70683;52.492;13.416;2023-08-06T07:57:16;19.20;84.80
80279;DHT22;70683;52.492;13.416;2023-08-06T07:59:43;19.20;84.40
80279;DHT22;70683;52.492;13.416;2023-08-06T08:02:10;19.10;84.10
80279;DHT22;70683;52.492;13.416;2023-08-06T08:04:36;19.10;84.80
80279;DHT22;70683;52.492;13.416;2023-08-06T08:07:03;19.00;85.00
80279;DHT22;70683;52.492;13.416;2023-08-06T08:09:31;19.00;85.60
80279;DHT22;70683;52.492;13.416;2023-08-06T08:11:57;19.10;85.30
80279;DHT22;70683;52.492;13.416;2023-08-06T08:14:26;19.00;85.70
80279;DHT22;70683;52.492;13.416;2023-08-06T08:16:52;19.00;85.50
80279;DHT22;70683;52.492;13.416;2023-08-06T08:19:19;19.00;85.90
80279;DHT22;70683;52.492;13.416;2023-08-06T08:21:47;19.00;86.20
80279;DHT22;70683;52.492;13.416;2023-08-06T08:24:13;19.00;85.80
80279;DHT22;70683;52.492;13.416;2023-08-06T08:26:40;19.00;86.00
80279;DHT22;70683;52.492;13.416;2023-08-06T08:29:06;19.10;85.70
80279;DHT22;70683;52.492;13.416;2023-08-06T08:31:33;19.20;85.30
80279;DHT22;70683;52.492;13.416;2023-08-06T08:34:02;19.30;84.90
80279;DHT22;70683;52.492;13.416;2023-08-06T08:36:28;19.30;85.00
80279;DHT22;70683;52.492;13.416;2023-08-06T08:38:55;19.40;84.30
80279;DHT22;70683;52.492;13.416;2023-08-06T08:41:23;19.40;84.10
80279;DHT22;70683;52.492;13.416;2023-08-06T08:43:50;19.30;85.00
80279;DHT22;70683;52.492;13.416;2023-08-06T08:46:19;19.30;85.10
80279;DHT22;70683;52.492;13.416;2023-08-06T08:48:46;19.30;85.40
80279;DHT22;70683;52.492;13.416;2023-08-06T08:51:13;19.30;85.40
80279;DHT22;70683;52.492;13.416;2023-08-06T08:53:40;19.30;85.10
80279;DHT22;70683;52.492;13.416;2023-08-06T08:56:08;19.30;85.40
80279;DHT22;70683;52.492;13.416;2023-08-06T08:58:35;19.40;85.00
80279;DHT22;70683;52.492;13.416;2023-08-06T09:01:02;19.50;85.20
80279;DHT22;70683;52.492;13.416;2023-08-06T09:03:30;19.40;84.60
80279;DHT22;70683;52.492;13.416;2023-08-06T09:05:58;19.30;85.20
80279;DHT22;70683;52.492;13.416;2023-08-06T09:08:27;19.40;85.40
80279;DHT22;70683;52.492;13.416;2023-08-06T09:10:56;19.50;85.30
80279;DHT22;70683;52.492;13.416;2023-08-06T09:13:23;19.60;85.10
80279;DHT22;70683;52.492;13.416;2023-08-06T09:15:49;19.60;84.30
80279;DHT22;70683;52.492;13.416;2023-08-06T09:18:24;19.60;84.30
80279;DHT22;70683;52.492;13.416;2023-08-06T09:20:48;19.70;84.70
80279;DHT22;70683;52.492;13.416;2023-08-06T09:23:15;19.70;84.50
80279;DHT22;70683;52.492;13.416;2023-08-06T09:25:42;19.80;84.20
80279;DHT22;70683;52.492;13.416;2023-08-06T09:28:08;19.80;83.50
80279;DHT22;70683;52.492;13.416;2023-08-06T09:30:37;19.80;83.60
80279;DHT22;70683;52.492;13.416;2023-08-06T09:33:08;19.70;83.90
80279;DHT22;70683;52.492;13.416;2023-08-06T09:35:37;19.60;84.60
80279;DHT22;70683;52.492;13.416;2023-08-06T09:38:06;19.60;84.70
80279;DHT22;70683;52.492;13.416;2023-08-06T09:40:33;19.60;84.90
80279;DHT22;70683;52.492;13.416;2023-08-06T09:43:00;19.70;84.50
80279;DHT22;70683;52.492;13.416;2023-08-06T09:45:31;19.70;84.70
80279;DHT22;70683;52.492;13.416;2023-08-06T09:48:00;19.70;83.70
80279;DHT22;70683;52.492;13.416;2023-08-06T09:50:32;19.70;84.40
80279;DHT22;70683;52.492;13.416;2023-08-06T09:53:00;19.60;84.20
80279;DHT22;70683;52.492;13.416;2023-08-06T09:55:27;19.60;84.60
80279;DHT22;70683;52.492;13.416;2023-08-06T09:57:54;19.60;85.00
80279;DHT22;70683;52.492;13.416;2023-08-06T10:00:22;19.60;84.70
80279;DHT22;70683;52.492;13.416;2023-08-06T10:02:50;19.60;85.10
80279;DHT22;70683;52.492;13.416;2023-08-06T10:05:18;19.70;85.30
80279;DHT22;70683;52.492;13.416;2023-08-06T10:07:45;19.70;85.20
80279;DHT22;70683;52.492;13.416;2023-08-06T10:10:13;19.70;85.10
80279;DHT22;70683;52.492;13.416;2023-08-06T10:12:44;19.70;84.70
80279;DHT22;70683;52.492;13.416;2023-08-06T10:15:12;19.70;84.60
80279;DHT22;70683;52.492;13.416;2023-08-06T10:17:40;19.60;84.30
80279;DHT22;70683;52.492;13.416;2023-08-06T10:20:09;19.50;85.10
80279;DHT22;70683;52.492;13.416;2023-08-06T10:22:35;19.40;85.70
80279;DHT22;70683;52.492;13.416;2023-08-06T10:25:03;19.40;86.10
80279;DHT22;70683;52.492;13.416;2023-08-06T10:27:36;19.30;85.90
80279;DHT22;70683;52.492;13.416;2023-08-06T10:32:47;19.20;86.80
80279;DHT22;70683;52.492;13.416;2023-08-06T10:37:53;19.00;88.30
80279;DHT22;70683;52.492;13.416;2023-08-06T10:40:21;18.80;89.10
80279;DHT22;70683;52.492;13.416;2023-08-06T10:42:49;18.80;87.70
80279;DHT22;70683;52.492;13.416;2023-08-06T10:45:18;18.80;87.60
80279;DHT22;70683;52.492;13.416;2023-08-06T10:47:45;18.70;88.60
80279;DHT22;70683;52.492;13.416;2023-08-06T10:50:14;18.80;89.20
80279;DHT22;70683;52.492;13.416;2023-08-06T10:52:44;18.80;89.50
80279;DHT22;70683;52.492;13.416;2023-08-06T10:55:11;18.90;89.30
80279;DHT22;70683;52.492;13.416;2023-08-06T10:57:38;19.00;88.90
80279;DHT22;70683;52.492;13.416;2023-08-06T11:00:06;19.00;88.30
80279;DHT22;70683;52.492;13.416;2023-08-06T11:02:35;19.00;87.90
80279;DHT22;70683;52.492;13.416;2023-08-06T11:05:07;19.10;86.60
80279;DHT22;70683;52.492;13.416;2023-08-06T11:07:35;19.10;86.60
80279;DHT22;70683;52.492;13.416;2023-08-06T11:10:05;19.30;86.80
80279;DHT22;70683;52.492;13.416;2023-08-06T11:12:33;19.30;87.00
80279;DHT22;70683;52.492;13.416;2023-08-06T11:15:01;19.40;86.70
80279;DHT22;70683;52.492;13.416;2023-08-06T11:17:29;19.50;86.60
80279;DHT22;70683;52.492;13.416;2023-08-06T11:19:58;19.50;86.90
80279;DHT22;70683;52.492;13.416;2023-08-06T11:22:25;19.60;86.20
80279;DHT22;70683;52.492;13.416;2023-08-06T11:24:53;19.60;85.60
80279;DHT22;70683;52.492;13.416;2023-08-06T11:27:19;19.50;85.60
80279;DHT22;70683;52.492;13.416;2023-08-06T11:29:46;19.50;86.50
80279;DHT22;70683;52.492;13.416;2023-08-06T11:32:13;19.50;87.00
80279;DHT22;70683;52.492;13.416;2023-08-06T11:34:40;19.50;86.40
80279;DHT22;70683;52.492;13.416;2023-08-06T11:37:07;19.50;85.40
80279;DHT22;70683;52.492;13.416;2023-08-06T11:39:34;19.50;85.00
80279;DHT22;70683;52.492;13.416;2023-08-06T11:42:04;19.60;86.00
80279;DHT22;70683;52.492;13.416;2023-08-06T11:44:32;19.60;85.00
80279;DHT22;70683;52.492;13.416;2023-08-06T11:47:01;19.60;85.60
80279;DHT22;70683;52.492;13.416;2023-08-06T11:49:37;19.50;85.60
80279;DHT22;70683;52.492;13.416;2023-08-06T11:52:10;19.60;86.10
80279;DHT22;70683;52.492;13.416;2023-08-06T11:54:37;19.60;82.90
80279;DHT22;70683;52.492;13.416;2023-08-06T11:57:05;19.60;83.90
80279;DHT22;70683;52.492;13.416;2023-08-06T11:59:32;19.40;84.00
80279;DHT22;70683;52.492;13.416;2023-08-06T12:02:02;19.40;84.00
80279;DHT22;70683;52.492;13.416;2023-08-06T12:04:32;19.40;85.40
80279;DHT22;70683;52.492;13.416;2023-08-06T12:07:06;19.40;85.30
80279;DHT22;70683;52.492;13.416;2023-08-06T12:09:34;19.50;85.50
80279;DHT22;70683;52.492;13.416;2023-08-06T12:12:02;19.60;85.60
80279;DHT22;70683;52.492;13.416;2023-08-06T12:14:29;19.70;84.30
80279;DHT22;70683;52.492;13.416;2023-08-06T12:16:56;19.60;84.30
80279;DHT22;70683;52.492;13.416;2023-08-06T12:19:23;19.60;84.20
80279;DHT22;70683;52.492;13.416;2023-08-06T12:21:49;19.60;84.80
80279;DHT22;70683;52.492;13.416;2023-08-06T12:24:16;19.50;85.70
80279;DHT22;70683;52.492;13.416;2023-08-06T12:26:42;19.60;86.00
80279;DHT22;70683;52.492;13.416;2023-08-06T12:29:09;19.70;85.70
80279;DHT22;70683;52.492;13.416;2023-08-06T12:31:36;19.70;85.20
80279;DHT22;70683;52.492;13.416;2023-08-06T12:34:02;19.80;84.90
80279;DHT22;70683;52.492;13.416;2023-08-06T12:36:29;19.80;84.80
80279;DHT22;70683;52.492;13.416;2023-08-06T12:38:55;19.80;84.90
80279;DHT22;70683;52.492;13.416;2023-08-06T12:41:22;19.80;84.80
80279;DHT22;70683;52.492;13.416;2023-08-06T12:43:48;19.80;85.40
80279;DHT22;70683;52.492;13.416;2023-08-06T12:46:15;19.70;85.40
80279;DHT22;70683;52.492;13.416;2023-08-06T12:48:42;19.70;85.70
80279;DHT22;70683;52.492;13.416;2023-08-06T12:51:08;19.70;85.90
80279;DHT22;70683;52.492;13.416;2023-08-06T12:53:35;19.80;86.10
80279;DHT22;70683;52.492;13.416;2023-08-06T12:56:01;19.80;85.70
80279;DHT22;70683;52.492;13.416;2023-08-06T12:58:28;19.80;85.90
80279;DHT22;70683;52.492;13.416;2023-08-06T13:00:55;19.80;85.70
80279;DHT22;70683;52.492;13.416;2023-08-06T13:03:22;19.80;85.90
80279;DHT22;70683;52.492;13.416;2023-08-06T13:05:49;19.80;85.50
80279;DHT22;70683;52.492;13.416;2023-08-06T13:08:16;19.80;86.00
80279;DHT22;70683;52.492;13.416;2023-08-06T13:10:43;19.70;85.50
80279;DHT22;70683;52.492;13.416;2023-08-06T13:13:10;19.60;86.20
80279;DHT22;70683;52.492;13.416;2023-08-06T13:15:36;19.60;86.30
80279;DHT22;70683;52.492;13.416;2023-08-06T13:18:03;19.60;85.90
80279;DHT22;70683;52.492;13.416;2023-08-06T13:20:31;19.50;86.30
80279;DHT22;70683;52.492;13.416;2023-08-06T13:22:58;19.50;86.60
80279;DHT22;70683;52.492;13.416;2023-08-06T13:25:27;19.50;86.70
80279;DHT22;70683;52.492;13.416;2023-08-06T13:27:54;19.50;86.60
80279;DHT22;70683;52.492;13.416;2023-08-06T13:30:21;19.50;86.40
80279;DHT22;70683;52.492;13.416;2023-08-06T13:32:49;19.50;86.40
80279;DHT22;70683;52.492;13.416;2023-08-06T13:35:15;19.40;86.90
80279;DHT22;70683;52.492;13.416;2023-08-06T13:37:42;19.40;87.30
80279;DHT22;70683;52.492;13.416;2023-08-06T13:40:09;19.30;87.80
80279;DHT22;70683;52.492;13.416;2023-08-06T13:42:36;19.30;87.60
80279;DHT22;70683;52.492;13.416;2023-08-06T13:45:03;19.20;87.60
80279;DHT22;70683;52.492;13.416;2023-08-06T13:47:30;19.20;87.60
80279;DHT22;70683;52.492;13.416;2023-08-06T13:49:57;19.10;88.20
80279;DHT22;70683;52.492;13.416;2023-08-06T13:52:25;19.10;88.10
80279;DHT22;70683;52.492;13.416;2023-08-06T13:54:52;19.00;88.80
80279;DHT22;70683;52.492;13.416;2023-08-06T13:57:19;19.10;88.90
80279;DHT22;70683;52.492;13.416;2023-08-06T13:59:46;19.10;88.90
80279;DHT22;70683;52.492;13.416;2023-08-06T14:02:12;19.10;88.20
80279;DHT22;70683;52.492;13.416;2023-08-06T14:04:39;19.10;89.10
80279;DHT22;70683;52.492;13.416;2023-08-06T14:07:06;19.20;89.80
80279;DHT22;70683;52.492;13.416;2023-08-06T14:09:32;19.20;88.70
80279;DHT22;70683;52.492;13.416;2023-08-06T14:12:00;19.20;88.90
80279;DHT22;70683;52.492;13.416;2023-08-06T14:14:27;19.10;89.10
80279;DHT22;70683;52.492;13.416;2023-08-06T14:16:54;19.20;89.00
80279;DHT22;70683;52.492;13.416;2023-08-06T14:19:21;19.10;89.10
80279;DHT22;70683;52.492;13.416;2023-08-06T14:21:47;19.00;89.50
80279;DHT22;70683;52.492;13.416;2023-08-06T14:24:14;19.00;90.00
80279;DHT22;70683;52.492;13.416;2023-08-06T14:26:40;18.90;89.50
80279;DHT22;70683;52.492;13.416;2023-08-06T14:29:07;18.80;89.60
80279;DHT22;70683;52.492;13.416;2023-08-06T14:31:34;18.70;90.00
80279;DHT22;70683;52.492;13.416;2023-08-06T14:34:00;18.70;90.30
80279;DHT22;70683;52.492;13.416;2023-08-06T14:36:27;18.70;89.80
80279;DHT22;70683;52.492;13.416;2023-08-06T14:38:54;18.70;90.20
80279;DHT22;70683;52.492;13.416;2023-08-06T14:41:21;18.60;88.70
80279;DHT22;70683;52.492;13.416;2023-08-06T14:43:47;18.60;89.60
80279;DHT22;70683;52.492;13.416;2023-08-06T14:46:14;18.50;90.10
80279;DHT22;70683;52.492;13.416;2023-08-06T14:48:41;18.50;89.70
80279;DHT22;70683;52.492;13.416;2023-08-06T14:51:08;18.50;89.50
80279;DHT22;70683;52.492;13.416;2023-08-06T14:53:35;18.40;89.60
80279;DHT22;70683;52.492;13.416;2023-08-06T14:56:01;18.40;90.50
80279;DHT22;70683;52.492;13.416;2023-08-06T14:58:28;18.50;90.40
80279;DHT22;70683;52.492;13.416;2023-08-06T15:00:55;18.50;90.20
80279;DHT22;70683;52.492;13.416;2023-08-06T15:03:21;18.50;90.30
80279;DHT22;70683;52.492;13.416;2023-08-06T15:05:49;18.50;90.60
80279;DHT22;70683;52.492;13.416;2023-08-06T15:08:17;18.70;90.10
80279;DHT22;70683;52.492;13.416;2023-08-06T15:10:50;18.70;90.60
80279;DHT22;70683;52.492;13.416;2023-08-06T15:13:18;18.80;90.50
80279;DHT22;70683;52.492;13.416;2023-08-06T15:15:47;18.90;89.70
80279;DHT22;70683;52.492;13.416;2023-08-06T15:18:13;19.00;89.50
80279;DHT22;70683;52.492;13.416;2023-08-06T15:20:40;19.00;89.00
80279;DHT22;70683;52.492;13.416;2023-08-06T15:23:07;18.90;89.10
80279;DHT22;70683;52.492;13.416;2023-08-06T15:25:33;19.00;89.90
80279;DHT22;70683;52.492;13.416;2023-08-06T15:28:00;19.00;87.30
80279;DHT22;70683;52.492;13.416;2023-08-06T15:30:26;19.00;87.60
80279;DHT22;70683;52.492;13.416;2023-08-06T15:32:53;19.00;87.10
80279;DHT22;70683;52.492;13.416;2023-08-06T15:35:20;19.00;86.80
80279;DHT22;70683;52.492;13.416;2023-08-06T15:37:46;19.00;87.50
80279;DHT22;70683;52.492;13.416;2023-08-06T15:40:13;19.00;86.70